createdAt,value
2022-12-25T00:02:23.167Z,9.83
2022-12-25T00:04:50.310Z,12.47
2022-12-25T00:07:19.940Z,6.63
2022-12-25T00:09:49.518Z,8.87
2022-12-25T00:12:19.360Z,7.37
2022-12-25T00:14:49.097Z,7.87
2022-12-25T00:17:16.264Z,7.13
2022-12-25T00:19:45.618Z,7.83
2022-12-25T00:22:12.787Z,5.97
2022-12-25T00:24:40.019Z,5.37
2022-12-25T00:27:07.217Z,9.97
2022-12-25T00:29:36.755Z,7.50
2022-12-25T00:32:04.331Z,4.93
2022-12-25T00:34:33.888Z,6.50
2022-12-25T00:37:01.432Z,10.07
2022-12-25T00:39:31.086Z,6.23
2022-12-25T00:42:17.090Z,4.90
2022-12-25T00:44:46.384Z,7.90
2022-12-25T00:47:16.821Z,8.10
2022-12-25T00:49:44.594Z,4.73
2022-12-25T00:52:11.807Z,4.87
2022-12-25T00:54:43.684Z,5.67
2022-12-25T00:57:13.406Z,6.90
2022-12-25T00:59:43.011Z,8.37
2022-12-25T01:02:25.786Z,7.20
2022-12-25T01:04:57.198Z,5.67
2022-12-25T01:07:28.203Z,8.83
2022-12-25T01:10:13.737Z,6.17
2022-12-25T01:12:43.926Z,5.30
2022-12-25T01:15:12.288Z,8.27
2022-12-25T01:17:40.185Z,5.77
2022-12-25T01:20:11.420Z,4.67
2022-12-25T01:22:41.006Z,6.90
2022-12-25T01:25:11.726Z,6.87
2022-12-25T01:27:43.230Z,8.77
2022-12-25T01:30:10.961Z,4.87
2022-12-25T01:32:38.397Z,7.10
2022-12-25T01:35:06.013Z,6.27
2022-12-25T01:37:33.182Z,7.67
2022-12-25T01:40:00.561Z,4.70
2022-12-25T01:42:28.774Z,6.80
2022-12-25T01:45:26.698Z,6.73
2022-12-25T01:47:53.938Z,7.93
2022-12-25T01:50:21.492Z,5.43
2022-12-25T01:52:49.459Z,5.13
2022-12-25T01:55:17.023Z,6.13
2022-12-25T01:57:44.651Z,5.40
2022-12-25T02:00:17.155Z,5.83
2022-12-25T02:02:45.564Z,4.47
2022-12-25T02:05:33.134Z,4.53
2022-12-25T02:08:07.738Z,4.70
2022-12-25T02:10:39.111Z,7.17
2022-12-25T02:13:07.694Z,5.23
2022-12-25T02:15:47.804Z,6.87
2022-12-25T02:18:53.991Z,6.87
2022-12-25T02:21:43.095Z,5.33
2022-12-25T02:24:19.357Z,6.43
2022-12-25T02:26:57.831Z,5.67
2022-12-25T02:29:38.036Z,7.17
2022-12-25T02:32:09.579Z,4.40
2022-12-25T02:34:48.735Z,4.97
2022-12-25T02:37:45.816Z,5.60
2022-12-25T02:40:21.028Z,4.87
2022-12-25T02:43:16.878Z,5.30
2022-12-25T02:46:02.926Z,5.43
2022-12-25T02:48:54.198Z,6.07
2022-12-25T02:51:44.281Z,4.20
2022-12-25T02:54:34.150Z,5.03
2022-12-25T02:57:24.636Z,3.43
2022-12-25T03:00:14.707Z,5.03
2022-12-25T03:03:02.142Z,5.07
2022-12-25T03:05:49.975Z,5.87
2022-12-25T03:08:26.883Z,6.07
2022-12-25T03:11:25.694Z,3.17
2022-12-25T03:14:18.025Z,9.03
2022-12-25T03:16:52.871Z,5.63
2022-12-25T03:19:42.999Z,3.60
2022-12-25T03:22:37.145Z,3.57
2022-12-25T03:25:25.636Z,4.07
2022-12-25T03:27:55.983Z,4.07
2022-12-25T03:30:54.817Z,4.07
2022-12-25T03:34:08.209Z,4.80
2022-12-25T03:37:29.267Z,5.63
2022-12-25T03:40:45.357Z,5.17
2022-12-25T03:44:06.646Z,5.43
2022-12-25T03:46:59.075Z,4.27
2022-12-25T03:50:03.906Z,5.30
2022-12-25T03:52:53.562Z,4.53
2022-12-25T03:55:41.116Z,6.57
2022-12-25T03:58:52.427Z,2.93
2022-12-25T04:01:38.459Z,2.90
2022-12-25T04:04:24.267Z,5.43
2022-12-25T04:07:10.233Z,4.53
2022-12-25T04:09:56.288Z,3.73
2022-12-25T04:12:41.775Z,4.00
2022-12-25T04:15:30.094Z,4.03
2022-12-25T04:18:18.249Z,4.83
2022-12-25T04:21:04.220Z,3.97
2022-12-25T04:23:50.357Z,5.63
2022-12-25T04:26:36.123Z,4.97
2022-12-25T04:29:24.542Z,4.57
2022-12-25T04:32:12.622Z,4.00
2022-12-25T04:35:00.657Z,3.63
2022-12-25T04:37:29.983Z,4.07
2022-12-25T04:39:57.134Z,5.87
2022-12-25T04:42:26.754Z,2.73
2022-12-25T04:44:53.899Z,3.83
2022-12-25T04:47:25.989Z,6.27
2022-12-25T04:49:55.518Z,5.27
2022-12-25T04:52:25.052Z,4.70
2022-12-25T04:54:52.211Z,5.80
2022-12-25T04:57:19.407Z,4.33
2022-12-25T04:59:49.147Z,3.67
2022-12-25T05:02:16.456Z,3.73
2022-12-25T05:04:46.294Z,3.57
2022-12-25T05:07:13.459Z,3.13
2022-12-25T05:09:45.299Z,2.77
2022-12-25T05:12:13.276Z,4.30
2022-12-25T05:14:41.212Z,3.63
2022-12-25T05:17:13.479Z,4.20
2022-12-25T05:19:43.038Z,4.67
2022-12-25T05:22:10.313Z,5.00
2022-12-25T05:24:37.472Z,3.23
2022-12-25T05:27:04.598Z,4.53
2022-12-25T05:29:33.998Z,4.33
2022-12-25T05:32:02.093Z,2.53
2022-12-25T05:34:29.258Z,4.50
2022-12-25T05:36:56.727Z,2.70
2022-12-25T05:39:24.282Z,3.83
2022-12-25T05:41:53.634Z,6.67
2022-12-25T05:44:20.809Z,3.23
2022-12-25T05:46:48.046Z,3.23
2022-12-25T05:49:15.348Z,3.83
2022-12-25T05:51:42.487Z,4.03
2022-12-25T05:54:11.704Z,3.47
2022-12-25T05:56:38.862Z,4.00
2022-12-25T05:59:08.296Z,2.97
2022-12-25T06:01:35.541Z,4.23
2022-12-25T06:04:05.814Z,4.13
2022-12-25T06:06:39.810Z,3.73
2022-12-25T06:09:07.073Z,4.03
2022-12-25T06:11:38.322Z,3.53
2022-12-25T06:14:08.349Z,2.03
2022-12-25T06:16:38.146Z,2.77
2022-12-25T06:19:05.994Z,2.67
2022-12-25T06:21:33.521Z,5.07
2022-12-25T06:24:03.703Z,2.43
2022-12-25T06:26:31.078Z,3.23
2022-12-25T06:28:58.188Z,3.47
2022-12-25T06:31:27.677Z,3.77
2022-12-25T06:33:59.927Z,5.17
2022-12-25T06:36:29.839Z,3.67
2022-12-25T06:39:00.586Z,2.90
2022-12-25T06:41:29.402Z,3.00
2022-12-25T06:43:59.346Z,3.40
2022-12-25T06:46:29.871Z,3.17
2022-12-25T06:49:00.197Z,2.97
2022-12-25T06:51:37.298Z,4.13
2022-12-25T06:54:04.883Z,2.00
2022-12-25T06:56:34.826Z,4.13
2022-12-25T06:59:10.545Z,1.97
2022-12-25T07:01:49.737Z,3.70
2022-12-25T07:04:27.087Z,5.20
2022-12-25T07:06:56.656Z,1.43
2022-12-25T07:09:26.183Z,3.83
2022-12-25T07:12:14.574Z,1.30
2022-12-25T07:14:41.933Z,2.53
2022-12-25T07:17:12.088Z,3.47
2022-12-25T07:19:44.698Z,2.70
2022-12-25T07:22:17.682Z,2.00
2022-12-25T07:24:47.127Z,2.03
2022-12-25T07:27:14.424Z,2.30
2022-12-25T07:29:41.631Z,3.43
2022-12-25T07:32:08.856Z,1.40
2022-12-25T07:34:41.132Z,4.23
2022-12-25T07:37:08.280Z,2.87
2022-12-25T07:39:37.935Z,2.73
2022-12-25T07:42:10.716Z,1.87
2022-12-25T07:44:37.880Z,3.30
2022-12-25T07:47:05.096Z,2.57
2022-12-25T07:49:34.358Z,1.77
2022-12-25T07:52:04.544Z,3.07
2022-12-25T07:54:31.657Z,2.23
2022-12-25T07:56:58.812Z,3.47
2022-12-25T07:59:30.645Z,4.07
2022-12-25T08:01:59.991Z,3.47
2022-12-25T08:04:27.234Z,3.43
2022-12-25T08:06:56.472Z,3.27
2022-12-25T08:09:23.784Z,2.23
2022-12-25T08:11:50.954Z,2.40
2022-12-25T08:14:20.376Z,3.30
2022-12-25T08:16:47.595Z,3.13
2022-12-25T08:19:15.147Z,5.73
2022-12-25T08:21:42.308Z,3.33
2022-12-25T08:24:09.565Z,2.73
2022-12-25T08:26:36.757Z,3.23
2022-12-25T08:29:03.982Z,2.53
2022-12-25T08:31:37.183Z,1.67
2022-12-25T08:34:08.925Z,2.83
2022-12-25T08:36:36.167Z,4.13
2022-12-25T08:39:05.607Z,3.23
2022-12-25T08:41:37.664Z,2.93
2022-12-25T08:44:06.016Z,1.97
2022-12-25T08:46:36.769Z,3.93
2022-12-25T08:49:03.999Z,3.80
2022-12-25T08:51:37.333Z,3.30
2022-12-25T08:54:08.808Z,2.13
2022-12-25T08:56:39.048Z,4.10
2022-12-25T08:59:06.202Z,2.23
2022-12-25T09:01:35.825Z,2.20
2022-12-25T09:04:03.114Z,4.53
2022-12-25T09:06:30.357Z,3.87
2022-12-25T09:08:57.562Z,4.10
2022-12-25T09:11:24.781Z,3.13
2022-12-25T09:13:51.965Z,4.37
2022-12-25T09:16:22.963Z,3.90
2022-12-25T09:18:51.424Z,3.77
2022-12-25T09:21:19.022Z,2.93
2022-12-25T09:23:48.745Z,3.17
2022-12-25T09:26:20.816Z,3.47
2022-12-25T09:28:52.005Z,3.70
2022-12-25T09:31:23.285Z,3.47
2022-12-25T09:33:59.405Z,3.60
2022-12-25T09:36:27.895Z,4.90
2022-12-25T09:38:55.016Z,4.73
2022-12-25T09:41:45.919Z,5.30
2022-12-25T09:44:30.404Z,4.60
2022-12-25T09:47:14.812Z,4.87
2022-12-25T09:49:49.994Z,4.83
2022-12-25T09:52:28.051Z,6.13
2022-12-25T09:55:13.392Z,4.60
2022-12-25T09:57:44.007Z,6.57
2022-12-25T10:00:17.076Z,5.97
2022-12-25T10:02:50.362Z,5.03
2022-12-25T10:05:36.434Z,4.17
2022-12-25T10:08:03.534Z,4.17
2022-12-25T10:10:42.555Z,3.97
2022-12-25T10:13:34.859Z,5.07
2022-12-25T10:16:13.987Z,4.83
2022-12-25T10:19:25.422Z,4.60
2022-12-25T10:22:00.709Z,4.33
2022-12-25T10:24:42.881Z,5.53
2022-12-25T10:27:19.970Z,5.50
2022-12-25T10:29:55.176Z,4.57
2022-12-25T10:32:24.872Z,3.30
2022-12-25T10:34:52.064Z,3.53
2022-12-25T10:37:19.427Z,3.57
2022-12-25T10:39:53.536Z,4.60
2022-12-25T10:42:28.624Z,3.03
2022-12-25T10:45:01.629Z,5.00
2022-12-25T10:47:38.136Z,3.63
2022-12-25T10:50:22.552Z,3.37
2022-12-25T10:53:04.386Z,4.13
2022-12-25T10:55:34.999Z,3.80
2022-12-25T10:58:06.293Z,3.90
2022-12-25T11:00:38.190Z,4.13
2022-12-25T11:03:05.502Z,4.43
2022-12-25T11:05:36.402Z,5.90
2022-12-25T11:08:21.539Z,3.23
2022-12-25T11:11:06.086Z,6.13
2022-12-25T11:13:47.694Z,3.67
2022-12-25T11:16:25.520Z,3.97
2022-12-25T11:18:56.507Z,4.20
2022-12-25T11:21:28.209Z,3.57
2022-12-25T11:24:06.458Z,4.03
2022-12-25T11:26:56.880Z,4.17
2022-12-25T11:29:44.157Z,4.13
2022-12-25T11:32:30.314Z,3.97
2022-12-25T11:35:01.886Z,3.87
2022-12-25T11:37:40.895Z,4.13
2022-12-25T11:40:15.764Z,3.37
2022-12-25T11:42:49.677Z,3.90
2022-12-25T11:45:35.858Z,3.80
2022-12-25T11:48:14.695Z,4.00
2022-12-25T11:50:43.706Z,3.70
2022-12-25T11:53:52.113Z,4.07
2022-12-25T11:56:24.004Z,3.13
2022-12-25T11:59:31.264Z,3.90
2022-12-25T12:02:23.564Z,3.30
2022-12-25T12:05:18.817Z,3.70
2022-12-25T12:08:00.219Z,3.03
2022-12-25T12:10:59.877Z,2.90
2022-12-25T12:13:40.742Z,2.67
2022-12-25T12:16:09.239Z,2.33
2022-12-25T12:18:37.739Z,2.67
2022-12-25T12:21:07.068Z,2.30
2022-12-25T12:24:05.865Z,2.10
2022-12-25T12:26:38.163Z,2.43
2022-12-25T12:29:24.495Z,1.87
2022-12-25T12:31:55.834Z,2.30
2022-12-25T12:34:40.377Z,2.70
2022-12-25T12:37:22.879Z,2.70
2022-12-25T12:39:54.634Z,2.50
2022-12-25T12:42:50.602Z,2.50
2022-12-25T12:45:31.482Z,2.83
2022-12-25T12:47:59.160Z,2.43
2022-12-25T12:50:29.100Z,2.67
2022-12-25T12:52:56.903Z,3.00
2022-12-25T12:55:36.079Z,3.10
2022-12-25T12:58:12.894Z,3.10
2022-12-25T13:01:11.827Z,3.53
2022-12-25T13:04:20.232Z,3.20
2022-12-25T13:07:05.027Z,2.90
2022-12-25T13:09:43.659Z,3.43
2022-12-25T13:12:12.917Z,3.30
2022-12-25T13:14:49.723Z,3.17
2022-12-25T13:17:23.768Z,3.60
2022-12-25T13:19:59.584Z,3.83
2022-12-25T13:22:33.107Z,4.00
2022-12-25T13:25:05.085Z,4.40
2022-12-25T13:27:35.715Z,4.07
2022-12-25T13:30:19.060Z,4.63
2022-12-25T13:32:49.311Z,5.70
2022-12-25T13:35:18.420Z,5.37
2022-12-25T13:37:48.061Z,6.37
2022-12-25T13:40:27.629Z,6.70
2022-12-25T13:43:00.333Z,9.00
2022-12-25T13:45:33.974Z,5.93
2022-12-25T13:48:15.032Z,4.57
2022-12-25T13:50:48.337Z,4.60
2022-12-25T13:53:18.300Z,4.40
2022-12-25T13:55:54.402Z,4.10
2022-12-25T13:58:30.631Z,6.27
2022-12-25T14:00:59.698Z,5.37
2022-12-25T14:03:40.314Z,4.50
2022-12-25T14:06:21.162Z,5.07
2022-12-25T14:08:48.944Z,5.17
2022-12-25T14:11:22.219Z,4.97
2022-12-25T14:14:04.111Z,5.20
2022-12-25T14:16:34.333Z,6.07
2022-12-25T14:19:02.701Z,5.40
2022-12-25T14:21:38.606Z,6.33
2022-12-25T14:24:13.995Z,5.63
2022-12-25T14:26:41.466Z,6.40
2022-12-25T14:29:17.638Z,6.73
2022-12-25T14:31:49.671Z,6.97
2022-12-25T14:34:23.237Z,6.83
2022-12-25T14:36:52.127Z,6.43
2022-12-25T14:39:36.728Z,6.30
2022-12-25T14:42:22.053Z,6.90
2022-12-25T14:45:41.327Z,7.07
2022-12-25T14:48:25.521Z,7.93
2022-12-25T14:51:04.381Z,6.97
2022-12-25T14:53:40.150Z,7.07
2022-12-25T14:56:10.406Z,6.83
2022-12-25T14:58:43.393Z,8.03
2022-12-25T15:01:29.708Z,7.47
2022-12-25T15:04:12.247Z,6.60
2022-12-25T15:06:41.829Z,8.33
2022-12-25T15:09:17.397Z,7.33
2022-12-25T15:11:51.294Z,8.53
2022-12-25T15:14:19.012Z,8.00
2022-12-25T15:16:49.340Z,8.67
2022-12-25T15:19:25.971Z,7.53
2022-12-25T15:21:56.717Z,8.63
2022-12-25T15:24:26.344Z,8.30
2022-12-25T15:27:00.978Z,8.03
2022-12-25T15:32:20.923Z,7.90
2022-12-25T15:34:50.975Z,8.67
2022-12-25T15:37:20.573Z,8.20
2022-12-25T15:39:47.770Z,8.40
2022-12-25T15:42:17.839Z,9.30
2022-12-25T15:44:45.509Z,9.53
2022-12-25T15:47:17.534Z,7.87
2022-12-25T15:49:49.077Z,8.97
2022-12-25T15:52:17.765Z,9.63
2022-12-25T15:54:44.940Z,9.90
2022-12-25T15:57:22.428Z,8.27
2022-12-25T15:59:49.566Z,9.77
2022-12-25T16:02:21.906Z,8.87
2022-12-25T16:04:51.081Z,10.37
2022-12-25T16:07:25.112Z,8.57
2022-12-25T16:09:55.125Z,8.70
2022-12-25T16:12:24.508Z,10.43
2022-12-25T16:14:51.696Z,9.53
2022-12-25T16:17:21.365Z,11.43
2022-12-25T16:19:52.776Z,9.87
2022-12-25T16:22:25.540Z,9.70
2022-12-25T16:24:55.369Z,10.07
2022-12-25T16:27:23.125Z,9.57
2022-12-25T16:29:52.512Z,9.10
2022-12-25T16:32:23.835Z,9.17
2022-12-25T16:34:51.081Z,9.67
2022-12-25T16:37:20.571Z,11.33
2022-12-25T16:39:47.740Z,12.57
2022-12-25T16:42:19.452Z,12.97
2022-12-25T16:44:48.972Z,10.47
2022-12-25T16:47:16.174Z,11.03
2022-12-25T16:49:45.768Z,9.73
2022-12-25T16:52:14.150Z,11.20
2022-12-25T16:54:41.330Z,11.57
2022-12-25T16:57:08.454Z,11.53
2022-12-25T16:59:37.727Z,11.47
2022-12-25T17:02:05.083Z,10.83
2022-12-25T17:04:32.438Z,11.77
2022-12-25T17:07:04.311Z,10.57
2022-12-25T17:09:31.624Z,12.47
2022-12-25T17:12:01.307Z,10.37
2022-12-25T17:14:28.466Z,10.27
2022-12-25T17:16:58.057Z,11.53
2022-12-25T17:19:28.314Z,10.60
2022-12-25T17:21:59.769Z,7.80
2022-12-25T17:24:27.517Z,10.63
2022-12-25T17:26:57.119Z,8.63
2022-12-25T17:29:25.171Z,8.57
2022-12-25T17:31:52.535Z,7.57
2022-12-25T17:34:20.171Z,8.27
2022-12-25T17:36:47.996Z,7.70
2022-12-25T17:39:17.223Z,10.27
2022-12-25T17:41:44.412Z,8.90
2022-12-25T17:44:16.166Z,7.00
2022-12-25T17:46:45.803Z,8.10
2022-12-25T17:49:19.119Z,7.47
2022-12-25T17:51:49.273Z,8.00
2022-12-25T17:54:20.852Z,7.67
2022-12-25T17:56:50.690Z,8.80
2022-12-25T17:59:28.261Z,8.87
2022-12-25T18:01:57.751Z,9.20
2022-12-25T18:04:25.073Z,6.77
2022-12-25T18:06:52.297Z,7.90
2022-12-25T18:09:23.889Z,7.73
2022-12-25T18:11:55.734Z,8.20
2022-12-25T18:14:25.168Z,7.40
2022-12-25T18:16:52.441Z,8.30
2022-12-25T18:19:19.745Z,7.67
2022-12-25T18:21:46.927Z,7.87
2022-12-25T18:24:16.845Z,7.87
2022-12-25T18:26:46.218Z,9.03
2022-12-25T18:29:13.636Z,7.43
2022-12-25T18:31:40.827Z,8.30
2022-12-25T18:34:08.042Z,9.67
2022-12-25T18:36:37.675Z,7.33
2022-12-25T18:39:05.245Z,7.73
2022-12-25T18:41:52.385Z,8.00
2022-12-25T18:44:19.473Z,8.13
2022-12-25T18:46:46.673Z,6.70
2022-12-25T18:49:13.788Z,7.73
2022-12-25T18:51:41.285Z,7.37
2022-12-25T18:54:08.478Z,10.83
2022-12-25T18:56:35.777Z,7.77
2022-12-25T18:59:05.287Z,7.73
2022-12-25T19:01:33.175Z,7.57
2022-12-25T19:04:05.087Z,9.93
2022-12-25T19:06:33.445Z,8.23
2022-12-25T19:09:01.021Z,7.20
2022-12-25T19:11:28.153Z,10.47
2022-12-25T19:13:56.013Z,11.50
2022-12-25T19:16:23.213Z,8.90
2022-12-25T19:18:50.534Z,8.20
2022-12-25T19:21:20.089Z,8.03
2022-12-25T19:23:47.483Z,11.30
2022-12-25T19:26:19.223Z,8.33
2022-12-25T19:28:48.643Z,8.77
2022-12-25T19:31:17.965Z,8.67
2022-12-25T19:33:50.751Z,9.33
2022-12-25T19:36:17.890Z,9.33
2022-12-25T19:38:49.585Z,8.07
2022-12-25T19:41:18.364Z,11.10
2022-12-25T19:43:50.279Z,10.43
2022-12-25T19:46:23.708Z,7.77
2022-12-25T19:48:51.137Z,7.57
2022-12-25T19:51:19.311Z,8.27
2022-12-25T19:53:49.521Z,9.90
2022-12-25T19:56:17.592Z,8.23
2022-12-25T19:58:45.369Z,10.13
2022-12-25T20:01:17.341Z,6.50
2022-12-25T20:03:47.749Z,8.07
2022-12-25T20:06:26.129Z,7.00
2022-12-25T20:09:07.358Z,9.03
2022-12-25T20:11:38.093Z,8.23
2022-12-25T20:14:08.646Z,10.70
2022-12-25T20:16:39.882Z,9.27
2022-12-25T20:19:09.720Z,10.23
2022-12-25T20:21:37.014Z,10.67
2022-12-25T20:24:06.116Z,8.40
2022-12-25T20:26:33.297Z,7.43
2022-12-25T20:29:00.503Z,8.43
2022-12-25T20:31:35.757Z,7.43
2022-12-25T20:34:11.481Z,10.70
2022-12-25T20:36:40.947Z,8.07
2022-12-25T20:39:10.107Z,9.33
2022-12-25T20:41:38.390Z,7.83
2022-12-25T20:44:06.846Z,7.20
2022-12-25T20:46:36.782Z,9.03
2022-12-25T20:49:06.864Z,8.43
2022-12-25T20:51:34.119Z,6.70
2022-12-25T20:54:08.496Z,5.27
2022-12-25T20:56:36.513Z,8.30
2022-12-25T20:59:06.458Z,5.63
2022-12-25T21:01:33.800Z,5.73
2022-12-25T21:04:01.210Z,5.00
2022-12-25T21:06:28.527Z,3.37
2022-12-25T21:08:55.648Z,4.90
2022-12-25T21:11:22.930Z,2.93
2022-12-25T21:13:50.275Z,3.20
2022-12-25T21:16:20.575Z,3.67
2022-12-25T21:18:49.401Z,3.07
2022-12-25T21:21:16.780Z,3.43
2022-12-25T21:23:47.018Z,3.60
2022-12-25T21:26:20.774Z,3.63
2022-12-25T21:28:52.999Z,3.47
2022-12-25T21:31:20.941Z,2.93
2022-12-25T21:33:54.906Z,2.70
2022-12-25T21:36:29.988Z,3.53
2022-12-25T21:39:03.539Z,3.17
2022-12-25T21:41:34.986Z,3.57
2022-12-25T21:44:02.639Z,4.43
2022-12-25T21:46:32.574Z,2.63
2022-12-25T21:49:00.594Z,4.20
2022-12-25T21:51:49.416Z,3.77
2022-12-25T21:54:18.121Z,6.57
2022-12-25T21:56:47.235Z,3.93
2022-12-25T21:59:20.524Z,4.60
2022-12-25T22:01:49.240Z,5.80
2022-12-25T22:04:18.172Z,4.13
2022-12-25T22:07:04.654Z,5.70
2022-12-25T22:09:32.006Z,6.93
2022-12-25T22:12:18.202Z,7.20
2022-12-25T22:14:56.788Z,7.27
2022-12-25T22:17:48.209Z,6.53
2022-12-25T22:20:28.165Z,6.77
2022-12-25T22:22:55.799Z,6.33
2022-12-25T22:25:26.308Z,5.90
2022-12-25T22:27:55.946Z,6.27
2022-12-25T22:30:28.399Z,7.37
2022-12-25T22:32:58.703Z,6.30
2022-12-25T22:35:26.080Z,5.17
2022-12-25T22:37:54.150Z,6.60
2022-12-25T22:40:21.896Z,5.37
2022-12-25T22:42:49.192Z,4.47
2022-12-25T22:45:18.899Z,5.87
2022-12-25T22:47:48.124Z,6.70
2022-12-25T22:50:19.080Z,4.33
2022-12-25T22:52:47.111Z,6.00
2022-12-25T22:55:19.334Z,6.90
2022-12-25T22:57:49.076Z,6.30
2022-12-25T23:00:16.339Z,5.77
2022-12-25T23:02:46.039Z,5.47
2022-12-25T23:05:13.482Z,8.10
2022-12-25T23:07:41.775Z,5.83
2022-12-25T23:10:10.123Z,4.87
2022-12-25T23:12:56.210Z,5.73
2022-12-25T23:15:23.424Z,4.60
2022-12-25T23:18:08.828Z,4.40
2022-12-25T23:20:55.589Z,5.00
2022-12-25T23:23:41.165Z,4.93
2022-12-25T23:26:11.060Z,4.73
2022-12-25T23:28:59.786Z,4.27
2022-12-25T23:31:33.936Z,4.50
2022-12-25T23:34:02.451Z,4.73
2022-12-25T23:36:29.708Z,4.27
2022-12-25T23:39:00.280Z,4.67
2022-12-25T23:41:30.388Z,4.77
2022-12-25T23:43:57.471Z,5.37
2022-12-25T23:46:24.799Z,4.20
2022-12-25T23:48:52.032Z,4.07
2022-12-25T23:51:21.562Z,5.03
2022-12-25T23:53:48.756Z,4.03
2022-12-25T23:56:15.962Z,4.40
2022-12-25T23:58:45.271Z,4.27
